McGrath, AK

7:36 PM AKDT on September 23, 2014 (GMT -0800)
Nikolai AP, Nikolai, AK | Change Station
CLOSE
Current Station
Airport
Location: Nikolai AP, Nikolai, AK,
Elevation: 413 ft
Nearby Weather Stations

Elev 413 ft 63.02 °N, 154.36 °W | Updated 23 minutes ago

Light Rain
Light Rain Mist
45 °F
Feels Like 45 °F
N
0
Wind Variable Wind from North

Today
High -- | Low -- °F
--% Chance of Precip.
Yesterday
High -- | Low -- °F
Precip. -- in
8:06 AM 8:16 PM
Waning Crescent, 0% visible
Pressure 29.95 in
Visibility 2.5 miles
Clouds Mostly Cloudy 1400 ft
Overcast 1800 ft
Dew Point 41 °F
Humidity 87%
Rainfall 0.00 in
Snow Depth 3 in , 1 in , 13 in
UV 0 out of 12
Pollen Not available.
Air Quality Not available.
Flu Activity Not available.
SPECI PAFS 240313Z AUTO 00000KT 2 1/2SM -RA BR BKN014 OVC018 07/05 A2995 RMK AO2 TSNO OVC V BKN P0000 $

More Conditions Fewer Conditions

Pressure 29.95 in
Visibility 2.5 miles
Clouds Mostly Cloudy 1400 ft
Overcast 1800 ft
Dew Point 41 °F
Humidity 87%
Rainfall 0.00 in
Snow Depth 3 in , 1 in , 13 in
UV 0 out of 12
Pollen Not available.
Air Quality Not available.
Flu Activity Not available.
SPECI PAFS 240313Z AUTO 00000KT 2 1/2SM -RA BR BKN014 OVC018 07/05 A2995 RMK AO2 TSNO OVC V BKN P0000 $

More Conditions Fewer Conditions

10-Day Weather Forecast

Almanac

Astronomy

Sep. 23, 2014 Rise Set
Actual Time 8:06 AM AKDT 8:16 PM AKDT
Civil Twilight 7:20 AM AKDT 9:01 PM AKDT
Nautical Twilight 6:25 AM AKDT 9:56 PM AKDT
Astronomical Twilight 5:23 AM AKDT 10:58 PM AKDT
Moon 7:41 AM AKDT (9/23) 7:52 PM AKDT (9/23)
Length of Visible Light 13h 40m
Length of Day
12h 09m
Tomorrow will be 6m 5s shorter.
Waning Crescent, 0% of the Moon is Illuminated
Today
Waning Crescent
Sep 24
New
Oct 1
First Quarter
Oct 8
Full
Oct 15
Last Quarter

Today's Extremes

State Highs State Lows

Community

WunderPhotos

Upload Photos

1,755,877 photos uploaded!

WunderBlogs® & News

Nearby

Snow Depth

Station Depth Elevation
Gobblers Knob 3 in 2030 ft
Mcneil Canyon 1 in 1320 ft
Imnaviat Creek 13 in 3050 ft
Upper Chena 1 in 2850 ft
Susitna Valley High 1 in 375 ft

Earthquake Activity

City Distance Mag. Time & Date
No recent earthquake activity has been reported nearby.
Minimum magnitude displayed is 2.5.

Coastal Water Temperatures

Place Temperature
No Stations Reporting

Nearby Weather Stations